createdAt,value
2018-07-25T00:00:38.740Z,19.40
2018-07-25T00:03:10.809Z,19.30
2018-07-25T00:05:39.066Z,19.30
2018-07-25T00:08:07.303Z,19.30
2018-07-25T00:10:40.908Z,19.40
2018-07-25T00:13:09.492Z,19.40
2018-07-25T00:15:37.717Z,19.30
2018-07-25T00:18:05.995Z,19.30
2018-07-25T00:20:34.262Z,19.30
2018-07-25T00:23:02.695Z,19.20
2018-07-25T00:25:30.958Z,19.10
2018-07-25T00:27:59.200Z,19.10
2018-07-25T00:30:27.452Z,19.10
2018-07-25T00:32:55.652Z,19.00
2018-07-25T00:35:23.887Z,19.00
2018-07-25T00:37:52.102Z,19.00
2018-07-25T00:40:20.347Z,19.00
2018-07-25T00:42:48.982Z,19.10
2018-07-25T00:45:18.159Z,19.10
2018-07-25T00:47:46.387Z,19.10
2018-07-25T00:50:14.583Z,19.10
2018-07-25T00:52:43.201Z,19.10
2018-07-25T00:55:11.425Z,19.10
2018-07-25T00:57:39.684Z,19.00
2018-07-25T01:00:07.920Z,18.90
2018-07-25T01:02:47.387Z,18.80
2018-07-25T01:05:15.778Z,18.70
2018-07-25T01:07:44.422Z,18.60
2018-07-25T01:10:12.698Z,18.60
2018-07-25T01:12:40.936Z,18.50
2018-07-25T01:15:10.123Z,18.40
2018-07-25T01:17:50.300Z,18.30
2018-07-25T01:20:18.555Z,18.30
2018-07-25T01:22:46.776Z,18.20
2018-07-25T01:25:15.736Z,18.20
2018-07-25T01:27:44.003Z,18.10
2018-07-25T01:30:12.280Z,18.10
2018-07-25T01:32:40.572Z,18.10
2018-07-25T01:35:08.772Z,18.10
2018-07-25T01:37:37.137Z,18.00
2018-07-25T01:40:05.380Z,18.00
2018-07-25T01:42:33.604Z,17.90
2018-07-25T01:45:01.837Z,18.00
2018-07-25T01:47:30.064Z,18.00
2018-07-25T01:52:30.787Z,18.10
2018-07-25T01:54:59.180Z,18.00
2018-07-25T01:57:27.388Z,18.00
2018-07-25T01:59:55.616Z,17.90
2018-07-25T02:02:23.829Z,17.90
2018-07-25T02:04:52.032Z,17.80
2018-07-25T02:07:20.989Z,17.70
2018-07-25T02:09:49.868Z,17.60
2018-07-25T02:12:18.315Z,17.60
2018-07-25T02:14:46.550Z,17.60
2018-07-25T02:17:14.771Z,17.50
2018-07-25T02:19:43.040Z,17.50
2018-07-25T02:22:15.647Z,17.50
2018-07-25T02:24:44.024Z,17.50
2018-07-25T02:27:12.314Z,17.40
2018-07-25T02:29:40.552Z,17.40
2018-07-25T02:32:10.115Z,17.40
2018-07-25T02:34:38.389Z,17.40
2018-07-25T02:37:06.668Z,17.40
2018-07-25T02:42:02.889Z,17.40
2018-07-25T02:44:31.124Z,17.30
2018-07-25T02:46:59.345Z,17.30
2018-07-25T02:49:27.606Z,17.30
2018-07-25T02:52:00.607Z,17.30
2018-07-25T02:54:28.848Z,17.20
2018-07-25T02:56:57.230Z,17.20
2018-07-25T02:59:25.406Z,17.20
2018-07-25T03:01:54.571Z,17.20
2018-07-25T03:04:22.848Z,17.20
2018-07-25T03:07:03.673Z,17.10
2018-07-25T03:09:31.952Z,17.10
2018-07-25T03:12:00.239Z,17.00
2018-07-25T03:16:56.445Z,17.00
2018-07-25T03:19:24.721Z,17.00
2018-07-25T03:21:55.890Z,17.00
2018-07-25T03:24:24.151Z,17.00
2018-07-25T03:26:52.650Z,17.00
2018-07-25T03:29:22.154Z,17.00
2018-07-25T03:31:50.400Z,17.00
2018-07-25T03:34:18.652Z,17.00
2018-07-25T03:36:46.878Z,17.00
2018-07-25T03:39:15.128Z,17.00
2018-07-25T03:41:43.433Z,17.00
2018-07-25T03:44:11.681Z,17.00
2018-07-25T03:46:39.985Z,17.00
2018-07-25T03:49:08.668Z,17.00
2018-07-25T03:51:36.919Z,17.00
2018-07-25T03:54:06.430Z,17.00
2018-07-25T03:56:34.703Z,17.00
2018-07-25T03:59:02.981Z,17.00
2018-07-25T04:01:31.255Z,17.10
2018-07-25T04:04:00.121Z,17.10
2018-07-25T04:06:28.316Z,17.10
2018-07-25T04:08:56.696Z,17.10
2018-07-25T04:13:53.479Z,17.30
2018-07-25T04:16:21.754Z,17.30
2018-07-25T04:18:50.508Z,17.40
2018-07-25T04:21:22.099Z,17.40
2018-07-25T04:23:50.898Z,17.40
2018-07-25T04:26:19.161Z,17.40
2018-07-25T04:28:47.466Z,17.50
2018-07-25T04:31:15.713Z,17.50
2018-07-25T04:33:43.988Z,17.50
2018-07-25T04:36:15.028Z,17.50
2018-07-25T04:38:43.613Z,17.60
2018-07-25T04:41:11.897Z,17.70
2018-07-25T04:43:40.647Z,17.80
2018-07-25T04:46:09.071Z,18.00
2018-07-25T04:48:37.415Z,18.70
2018-07-25T04:51:05.718Z,19.20
2018-07-25T04:53:37.979Z,20.20
2018-07-25T04:56:06.520Z,21.10
2018-07-25T04:58:34.700Z,22.10
2018-07-25T05:01:02.925Z,22.80
2018-07-25T05:03:31.327Z,23.60
2018-07-25T05:06:00.489Z,24.10
2018-07-25T05:08:28.740Z,24.20
2018-07-25T05:10:57.016Z,24.30
2018-07-25T05:13:25.884Z,24.40
2018-07-25T05:15:54.079Z,24.60
2018-07-25T05:18:22.350Z,25.10
2018-07-25T05:20:50.636Z,25.60
2018-07-25T05:23:18.938Z,25.80
2018-07-25T05:25:47.214Z,26.10
2018-07-25T05:28:15.498Z,26.20
2018-07-25T05:30:44.824Z,26.70
2018-07-25T05:33:13.130Z,27.10
2018-07-25T05:35:41.340Z,26.90
2018-07-25T05:38:09.956Z,27.30
2018-07-25T05:40:38.206Z,27.60
2018-07-25T05:43:06.483Z,27.60
2018-07-25T05:45:34.697Z,27.80
2018-07-25T05:48:02.926Z,28.10
2018-07-25T05:50:31.412Z,27.80
2018-07-25T05:53:02.972Z,27.90
2018-07-25T05:57:59.415Z,27.70
2018-07-25T06:00:27.648Z,27.50
2018-07-25T06:02:56.413Z,27.50
2018-07-25T06:05:24.634Z,27.80
2018-07-25T06:07:52.890Z,27.80
2018-07-25T06:10:21.115Z,28.30
2018-07-25T06:12:49.588Z,28.30
2018-07-25T06:18:48.681Z,28.10
2018-07-25T06:21:16.935Z,28.70
2018-07-25T06:23:45.438Z,28.90
2018-07-25T06:26:14.203Z,28.20
2018-07-25T06:28:42.470Z,28.20
2018-07-25T06:31:10.759Z,28.70
2018-07-25T06:33:38.965Z,28.90
2018-07-25T06:36:07.556Z,29.20
2018-07-25T06:38:35.757Z,29.50
2018-07-25T06:41:03.988Z,28.90
2018-07-25T06:43:32.256Z,27.60
2018-07-25T06:46:00.504Z,26.50
2018-07-25T06:48:28.740Z,25.40
2018-07-25T06:50:56.951Z,24.50
2018-07-25T06:53:35.416Z,24.20
2018-07-25T06:56:03.596Z,24.10
2018-07-25T06:58:32.196Z,24.20
2018-07-25T07:01:00.400Z,24.10
2018-07-25T07:05:57.339Z,24.30
2018-07-25T07:08:28.519Z,24.40
2018-07-25T07:10:56.716Z,24.50
2018-07-25T07:13:24.961Z,24.40
2018-07-25T07:15:53.154Z,24.40
2018-07-25T07:18:21.384Z,24.30
2018-07-25T07:20:49.597Z,24.30
2018-07-25T07:23:17.884Z,24.40
2018-07-25T07:25:46.132Z,24.60
2018-07-25T07:28:14.352Z,24.50
2018-07-25T07:30:42.723Z,24.50
2018-07-25T07:33:10.923Z,24.60
2018-07-25T07:35:39.312Z,24.70
2018-07-25T07:38:07.617Z,24.80
2018-07-25T07:40:43.654Z,24.80
2018-07-25T07:43:12.242Z,24.80
2018-07-25T07:45:40.509Z,24.90
2018-07-25T07:48:09.671Z,24.80
2018-07-25T07:50:38.048Z,24.90
2018-07-25T07:53:06.302Z,25.00
2018-07-25T07:55:38.191Z,25.20
2018-07-25T07:58:06.382Z,25.30
2018-07-25T08:03:03.241Z,25.40
2018-07-25T08:05:31.871Z,25.60
2018-07-25T08:08:00.083Z,25.70
2018-07-25T08:10:35.701Z,25.90
2018-07-25T08:13:03.868Z,25.90
2018-07-25T08:15:32.109Z,26.00
2018-07-25T08:18:00.436Z,26.20
2018-07-25T08:20:28.644Z,26.20
2018-07-25T08:22:56.823Z,26.50
2018-07-25T08:25:36.877Z,26.60
2018-07-25T08:28:05.057Z,26.50
2018-07-25T08:30:33.297Z,26.60
2018-07-25T08:33:01.893Z,26.60
2018-07-25T08:35:30.078Z,26.60
2018-07-25T08:37:58.297Z,26.70
2018-07-25T08:40:34.276Z,26.80
2018-07-25T08:43:02.787Z,26.80
2018-07-25T08:45:31.036Z,27.00
2018-07-25T08:47:59.470Z,27.00
2018-07-25T08:50:27.812Z,27.10
2018-07-25T08:52:56.163Z,27.20
2018-07-25T08:55:27.396Z,27.30
2018-07-25T08:57:55.739Z,27.50
2018-07-25T09:00:23.983Z,27.60
2018-07-25T09:02:52.676Z,27.60
2018-07-25T09:05:21.006Z,27.60
2018-07-25T09:07:49.327Z,27.70
2018-07-25T09:10:17.679Z,27.80
2018-07-25T09:12:56.629Z,27.90
2018-07-25T09:15:24.785Z,28.00
2018-07-25T09:20:21.984Z,28.00
2018-07-25T09:22:50.235Z,28.00
2018-07-25T09:25:19.236Z,28.00
2018-07-25T09:27:50.264Z,28.10
2018-07-25T09:32:47.964Z,28.10
2018-07-25T09:35:16.172Z,28.10
2018-07-25T09:37:44.444Z,28.20
2018-07-25T09:40:12.687Z,28.40
2018-07-25T09:42:44.319Z,28.50
2018-07-25T09:45:12.535Z,28.60
2018-07-25T09:47:40.890Z,28.80
2018-07-25T09:50:10.300Z,28.90
2018-07-25T09:52:40.096Z,28.90
2018-07-25T09:55:09.741Z,28.90
2018-07-25T09:57:38.442Z,29.00
2018-07-25T10:00:09.674Z,29.00
2018-07-25T10:02:38.466Z,29.00
2018-07-25T10:05:07.127Z,29.10
2018-07-25T10:07:35.441Z,28.90
2018-07-25T10:10:03.695Z,28.90
2018-07-25T10:12:42.849Z,29.00
2018-07-25T10:15:11.970Z,29.00
2018-07-25T10:17:40.368Z,28.70
2018-07-25T10:20:08.824Z,28.90
2018-07-25T10:22:37.025Z,28.80
2018-07-25T10:25:05.325Z,29.10
2018-07-25T10:27:33.592Z,29.20
2018-07-25T10:34:59.429Z,29.50
2018-07-25T10:37:27.639Z,29.60
2018-07-25T10:42:27.402Z,29.80
2018-07-25T10:44:56.506Z,29.80
2018-07-25T10:47:24.759Z,29.90
2018-07-25T10:49:53.069Z,29.90
2018-07-25T10:52:21.310Z,29.60
2018-07-25T10:54:49.565Z,29.80
2018-07-25T10:57:21.480Z,29.90
2018-07-25T10:59:49.728Z,29.60
2018-07-25T11:02:18.133Z,29.70
2018-07-25T11:04:46.574Z,29.90
2018-07-25T11:07:14.939Z,29.90
2018-07-25T11:09:43.551Z,29.90
2018-07-25T11:12:11.722Z,29.80
2018-07-25T11:14:46.420Z,29.90
2018-07-25T11:17:14.694Z,30.10
2018-07-25T11:19:42.969Z,29.90
2018-07-25T11:24:40.014Z,29.90
2018-07-25T11:27:08.310Z,30.00
2018-07-25T11:29:37.150Z,30.00
2018-07-25T11:32:05.480Z,30.10
2018-07-25T11:34:33.768Z,30.20
2018-07-25T11:37:02.009Z,30.30
2018-07-25T11:39:30.332Z,30.30
2018-07-25T11:41:58.557Z,30.60
2018-07-25T11:44:26.807Z,30.80
2018-07-25T11:46:55.050Z,30.90
2018-07-25T11:49:23.318Z,30.90
2018-07-25T11:51:52.290Z,30.60
2018-07-25T11:54:20.692Z,30.50
2018-07-25T11:56:49.008Z,30.40
2018-07-25T11:59:20.685Z,30.60
2018-07-25T12:01:49.019Z,30.70
2018-07-25T12:04:17.203Z,30.90
2018-07-25T12:06:46.160Z,30.90
2018-07-25T12:09:14.435Z,30.90
2018-07-25T12:11:45.864Z,30.90
2018-07-25T12:14:19.829Z,30.90
2018-07-25T12:16:48.067Z,31.00
2018-07-25T12:19:16.891Z,31.10
2018-07-25T12:21:45.144Z,31.10
2018-07-25T12:24:13.411Z,31.20
2018-07-25T12:26:42.040Z,31.30
2018-07-25T12:29:10.249Z,31.30
2018-07-25T12:31:38.886Z,31.40
2018-07-25T12:34:07.107Z,31.40
2018-07-25T12:36:35.350Z,31.30
2018-07-25T12:39:04.322Z,31.30
2018-07-25T12:41:32.521Z,31.20
2018-07-25T12:44:12.079Z,31.20
2018-07-25T12:46:40.288Z,31.20
2018-07-25T12:49:08.537Z,31.30
2018-07-25T12:51:36.712Z,31.40
2018-07-25T12:54:05.363Z,31.40
2018-07-25T12:56:33.471Z,31.60
2018-07-25T12:59:01.721Z,31.70
2018-07-25T13:01:29.919Z,31.80
2018-07-25T13:03:58.200Z,31.90
2018-07-25T13:06:26.384Z,31.90
2018-07-25T13:08:54.667Z,31.80
2018-07-25T13:11:22.868Z,31.70
2018-07-25T13:13:51.071Z,31.60
2018-07-25T13:16:19.293Z,31.50
2018-07-25T13:18:47.550Z,31.60
2018-07-25T13:21:15.751Z,31.60
2018-07-25T13:23:44.096Z,31.40
2018-07-25T13:26:12.277Z,31.40
2018-07-25T13:28:40.539Z,31.50
2018-07-25T13:31:08.683Z,31.80
2018-07-25T13:33:36.928Z,32.00
2018-07-25T13:36:05.224Z,32.10
2018-07-25T13:38:33.387Z,32.00
2018-07-25T13:41:01.608Z,31.90
2018-07-25T13:43:29.782Z,31.90
2018-07-25T13:45:58.013Z,31.80
2018-07-25T13:48:26.223Z,31.70
2018-07-25T13:50:54.448Z,31.70
2018-07-25T13:53:22.707Z,31.90
2018-07-25T13:55:50.975Z,32.00
2018-07-25T13:58:19.224Z,32.10
2018-07-25T14:00:47.407Z,32.20
2018-07-25T14:03:19.172Z,32.10
2018-07-25T14:05:47.393Z,32.30
2018-07-25T14:08:15.699Z,32.30
2018-07-25T14:10:43.956Z,32.30
2018-07-25T14:13:12.280Z,32.30
2018-07-25T14:15:40.489Z,32.20
2018-07-25T14:18:08.833Z,32.40
2018-07-25T14:20:36.983Z,32.30
2018-07-25T14:23:05.571Z,32.20
2018-07-25T14:25:33.759Z,32.40
2018-07-25T14:28:01.995Z,32.60
2018-07-25T14:30:30.299Z,32.50
2018-07-25T14:32:58.413Z,32.50
2018-07-25T14:35:26.608Z,32.70
2018-07-25T14:37:54.824Z,32.80
2018-07-25T14:40:23.136Z,32.60
2018-07-25T14:42:51.251Z,32.50
2018-07-25T14:45:19.597Z,32.40
2018-07-25T14:47:47.817Z,32.30
2018-07-25T14:52:44.349Z,32.40
2018-07-25T14:55:12.573Z,32.50
2018-07-25T14:57:41.007Z,32.40
2018-07-25T15:00:09.739Z,32.50
2018-07-25T15:02:42.193Z,32.70
2018-07-25T15:05:10.443Z,32.70
2018-07-25T15:07:39.612Z,32.80
2018-07-25T15:10:07.892Z,32.80
2018-07-25T15:12:41.820Z,32.60
2018-07-25T15:15:11.402Z,32.40
2018-07-25T15:17:40.429Z,32.40
2018-07-25T15:20:13.027Z,32.40
2018-07-25T15:22:41.374Z,32.40
2018-07-25T15:25:09.971Z,32.30
2018-07-25T15:27:38.194Z,32.30
2018-07-25T15:30:07.848Z,32.30
2018-07-25T15:32:38.916Z,32.20
2018-07-25T15:35:07.603Z,32.40
2018-07-25T15:37:36.412Z,32.30
2018-07-25T15:40:05.280Z,32.10
2018-07-25T15:42:33.491Z,32.30
2018-07-25T15:45:01.730Z,32.40
2018-07-25T15:47:33.779Z,32.30
2018-07-25T15:50:08.527Z,32.30
2018-07-25T15:52:36.748Z,32.10
2018-07-25T15:55:05.023Z,32.10
2018-07-25T15:57:33.427Z,32.10
2018-07-25T16:00:01.668Z,32.10
2018-07-25T16:02:33.199Z,32.20
2018-07-25T16:07:29.388Z,32.10
2018-07-25T16:09:57.691Z,32.10
2018-07-25T16:12:26.135Z,32.20
2018-07-25T16:14:54.435Z,32.30
2018-07-25T16:17:22.747Z,32.40
2018-07-25T16:19:51.032Z,32.40
2018-07-25T16:22:19.340Z,32.30
2018-07-25T16:24:47.977Z,32.30
2018-07-25T16:27:17.313Z,32.40
2018-07-25T16:29:45.670Z,33.10
2018-07-25T16:32:13.911Z,34.00
2018-07-25T16:34:42.236Z,34.70
2018-07-25T16:37:10.768Z,34.60
2018-07-25T16:39:39.063Z,34.50
2018-07-25T16:42:07.614Z,34.80
2018-07-25T16:44:36.614Z,35.00
2018-07-25T16:47:05.048Z,35.30
2018-07-25T16:49:37.513Z,35.50
2018-07-25T16:52:05.722Z,36.10
2018-07-25T16:54:33.959Z,36.40
2018-07-25T16:59:30.270Z,36.60
2018-07-25T17:01:58.472Z,36.20
2018-07-25T17:04:30.207Z,36.30
2018-07-25T17:06:58.452Z,36.50
2018-07-25T17:09:27.070Z,37.30
2018-07-25T17:11:55.271Z,37.00
2018-07-25T17:14:23.692Z,37.10
2018-07-25T17:16:51.967Z,37.50
2018-07-25T17:19:23.164Z,37.20
2018-07-25T17:21:51.359Z,37.70
2018-07-25T17:24:20.588Z,38.40
2018-07-25T17:26:48.759Z,38.90
2018-07-25T17:29:16.984Z,40.00
2018-07-25T17:31:45.240Z,39.80
2018-07-25T17:34:13.458Z,39.10
2018-07-25T17:36:41.864Z,38.90
2018-07-25T17:39:11.249Z,39.60
2018-07-25T17:41:40.279Z,40.20
2018-07-25T17:44:08.591Z,40.10
2018-07-25T17:46:36.790Z,40.80
2018-07-25T17:49:08.008Z,41.20
2018-07-25T17:51:37.257Z,41.20
2018-07-25T17:54:05.608Z,40.80
2018-07-25T17:56:33.907Z,40.50
2018-07-25T17:59:02.138Z,39.70
2018-07-25T18:01:30.361Z,39.70
2018-07-25T18:03:58.600Z,39.80
2018-07-25T18:06:26.826Z,39.70
2018-07-25T18:08:55.348Z,39.60
2018-07-25T18:11:23.565Z,39.60
2018-07-25T18:13:57.198Z,38.70
2018-07-25T18:16:25.661Z,38.70
2018-07-25T18:18:54.414Z,38.20
2018-07-25T18:21:22.732Z,38.10
2018-07-25T18:23:51.878Z,37.80
2018-07-25T18:26:20.120Z,37.30
2018-07-25T18:28:48.383Z,37.00
2018-07-25T18:33:45.356Z,36.30
2018-07-25T18:36:13.589Z,35.80
2018-07-25T18:38:41.827Z,35.20
2018-07-25T18:41:10.465Z,34.80
2018-07-25T18:43:38.656Z,34.20
2018-07-25T18:46:06.969Z,33.00
2018-07-25T18:48:41.925Z,32.20
2018-07-25T18:51:16.019Z,31.60
2018-07-25T18:53:44.623Z,31.00
2018-07-25T18:56:20.105Z,30.70
2018-07-25T18:58:49.543Z,30.30
2018-07-25T19:01:17.966Z,29.90
2018-07-25T19:03:46.154Z,29.70
2018-07-25T19:06:14.432Z,29.40
2018-07-25T19:08:42.660Z,29.20
2018-07-25T19:11:11.063Z,28.90
2018-07-25T19:13:39.303Z,28.70
2018-07-25T19:16:07.513Z,28.60
2018-07-25T19:18:35.757Z,28.40
2018-07-25T19:21:03.970Z,28.40
2018-07-25T19:23:33.186Z,28.10
2018-07-25T19:26:01.517Z,27.80
2018-07-25T19:28:29.778Z,27.60
2018-07-25T19:30:58.389Z,27.50
2018-07-25T19:33:26.804Z,27.30
2018-07-25T19:35:59.442Z,27.20
2018-07-25T19:38:27.698Z,27.20
2018-07-25T19:40:55.948Z,27.10
2018-07-25T19:43:24.253Z,27.00
2018-07-25T19:45:52.479Z,26.90
2018-07-25T19:48:20.771Z,26.90
2018-07-25T19:50:48.978Z,26.90
2018-07-25T19:53:18.101Z,26.80
2018-07-25T19:55:46.411Z,26.70
2018-07-25T19:58:14.636Z,26.70
2018-07-25T20:00:43.276Z,26.60
2018-07-25T20:03:11.495Z,26.60
2018-07-25T20:05:39.969Z,26.60
2018-07-25T20:08:08.163Z,26.50
2018-07-25T20:10:36.382Z,26.30
2018-07-25T20:13:04.567Z,26.20
2018-07-25T20:15:38.251Z,26.20
2018-07-25T20:18:07.162Z,26.20
2018-07-25T20:20:35.389Z,26.10
2018-07-25T20:23:10.765Z,25.90
2018-07-25T20:25:39.231Z,25.80
2018-07-25T20:28:07.427Z,25.60
2018-07-25T20:30:35.671Z,25.50
2018-07-25T20:35:31.888Z,25.30
2018-07-25T20:40:31.874Z,25.00
2018-07-25T20:43:00.155Z,24.90
2018-07-25T20:45:29.039Z,24.80
2018-07-25T20:47:57.305Z,24.70
2018-07-25T20:50:25.555Z,24.60
2018-07-25T20:52:53.967Z,24.60
2018-07-25T20:55:22.136Z,24.50
2018-07-25T20:57:50.372Z,24.40
2018-07-25T21:00:22.879Z,24.30
2018-07-25T21:02:51.132Z,24.20
2018-07-25T21:05:19.325Z,24.30
2018-07-25T21:07:50.582Z,24.20
2018-07-25T21:10:19.460Z,24.20
2018-07-25T21:12:47.753Z,24.10
2018-07-25T21:15:15.970Z,24.00
2018-07-25T21:17:44.184Z,23.80
2018-07-25T21:22:40.441Z,23.60
2018-07-25T21:25:08.819Z,23.60
2018-07-25T21:27:37.371Z,23.60
2018-07-25T21:30:05.586Z,23.50
2018-07-25T21:32:33.978Z,23.40
2018-07-25T21:35:02.175Z,23.20
2018-07-25T21:37:30.700Z,23.10
2018-07-25T21:40:01.916Z,23.10
2018-07-25T21:42:30.137Z,23.10
2018-07-25T21:44:58.553Z,23.10
2018-07-25T21:47:26.788Z,23.10
2018-07-25T21:49:55.024Z,23.10
2018-07-25T21:52:23.208Z,23.00
2018-07-25T21:54:54.667Z,22.90
2018-07-25T21:57:23.563Z,22.80
2018-07-25T21:59:51.745Z,22.80
2018-07-25T22:02:19.959Z,22.80
2018-07-25T22:04:48.188Z,22.80
2018-07-25T22:07:16.372Z,22.70
2018-07-25T22:09:47.606Z,22.60
2018-07-25T22:12:15.856Z,22.50
2018-07-25T22:14:44.125Z,22.30
2018-07-25T22:17:12.411Z,22.30
2018-07-25T22:19:40.641Z,22.30
2018-07-25T22:22:08.841Z,22.20
2018-07-25T22:24:40.516Z,22.20
2018-07-25T22:27:08.716Z,22.20
2018-07-25T22:32:04.940Z,22.00
2018-07-25T22:34:33.235Z,22.00
2018-07-25T22:37:01.457Z,22.00
2018-07-25T22:39:33.551Z,21.90
2018-07-25T22:42:01.759Z,21.90
2018-07-25T22:44:29.999Z,21.80
2018-07-25T22:46:58.221Z,21.80
2018-07-25T22:49:26.452Z,21.70
2018-07-25T22:51:54.642Z,21.60
2018-07-25T22:54:25.771Z,21.50
2018-07-25T22:56:54.042Z,21.50
2018-07-25T22:59:23.143Z,21.50
2018-07-25T23:01:51.376Z,21.40
2018-07-25T23:04:19.579Z,21.30
2018-07-25T23:06:48.213Z,21.30
2018-07-25T23:09:20.233Z,21.20
2018-07-25T23:11:48.612Z,21.30
2018-07-25T23:14:16.931Z,21.10
2018-07-25T23:19:13.246Z,21.00
2018-07-25T23:21:41.500Z,21.00
2018-07-25T23:24:09.753Z,21.00
2018-07-25T23:26:42.261Z,21.00
2018-07-25T23:29:10.572Z,21.00
2018-07-25T23:31:38.808Z,20.90
2018-07-25T23:34:07.093Z,20.80
2018-07-25T23:36:35.260Z,20.80
2018-07-25T23:39:04.529Z,20.70
2018-07-25T23:41:33.408Z,20.80
2018-07-25T23:44:01.629Z,20.70
2018-07-25T23:46:29.865Z,20.70
2018-07-25T23:48:58.044Z,20.70
2018-07-25T23:51:26.276Z,20.70
2018-07-25T23:53:54.495Z,20.60
2018-07-25T23:56:22.799Z,20.60
2018-07-25T23:58:51.014Z,20.50
